Time;durP1;ratioP1;P1;durP2;ratioP2;P2;SDS_P1;SDS_P2;PMS_P1;PMS_P2;Temp;Humidity;BMP_temperature;BMP_pressure;BME280_temperature;BME280_humidity;BME280_pressure;Samples;Min_cycle;Max_cycle;Signal;HPM_P1;HPM_P2
2021/04/28 00:02:18;;;;;;;10.63;4.53;;;8.40;59.90;;;;;;5082176;28;20036;-61
2021/04/28 00:04:44;;;;;;;7.20;3.97;;;8.40;59.70;;;;;;5081837;28;20478;-64
2021/04/28 00:07:10;;;;;;;6.97;4.07;;;8.40;59.90;;;;;;5064078;28;20049;-62
2021/04/28 00:09:35;;;;;;;5.97;4.07;;;8.40;60.30;;;;;;5069866;28;20055;-62
2021/04/28 00:12:02;;;;;;;10.85;4.45;;;8.40;60.30;;;;;;5083618;28;20036;-63
2021/04/28 00:14:28;;;;;;;6.53;4.00;;;8.20;62.30;;;;;;5081791;28;20025;-63
2021/04/28 00:16:54;;;;;;;6.40;3.88;;;8.10;61.60;;;;;;5077378;28;20429;-62
2021/04/28 00:19:19;;;;;;;13.50;4.63;;;8.10;61.30;;;;;;5081048;28;20067;-63
2021/04/28 00:21:45;;;;;;;7.47;4.47;;;8.00;62.70;;;;;;5081512;28;20409;-62
2021/04/28 00:24:14;;;;;;;11.82;4.43;;;7.90;63.20;;;;;;5076628;28;20016;-62
2021/04/28 00:26:39;;;;;;;7.00;4.53;;;7.80;64.00;;;;;;5065309;28;20116;-61
2021/04/28 00:29:06;;;;;;;9.27;4.38;;;7.70;65.00;;;;;;5070397;28;20099;-62
2021/04/28 00:31:32;;;;;;;9.15;4.20;;;7.70;65.50;;;;;;5081834;28;20020;-63
2021/04/28 00:33:58;;;;;;;10.48;4.75;;;7.70;64.90;;;;;;5078148;28;20084;-62
2021/04/28 00:36:24;;;;;;;5.90;4.03;;;7.60;65.00;;;;;;5081335;28;20024;-62
2021/04/28 00:38:50;;;;;;;7.93;3.70;;;7.50;66.00;;;;;;5081013;28;20103;-61
2021/04/28 00:41:16;;;;;;;8.45;4.28;;;7.50;66.20;;;;;;5079082;28;20645;-62
2021/04/28 00:43:42;;;;;;;10.32;4.90;;;7.50;66.60;;;;;;5065186;28;20119;-62
2021/04/28 00:46:07;;;;;;;10.95;4.72;;;7.50;66.30;;;;;;5068585;28;20030;-61
2021/04/28 00:48:34;;;;;;;18.08;4.38;;;7.40;66.40;;;;;;5069662;28;20032;-59
2021/04/28 00:51:00;;;;;;;6.25;3.65;;;7.30;68.40;;;;;;5067016;28;20125;-63
2021/04/28 00:53:27;;;;;;;7.57;4.53;;;7.30;68.50;;;;;;5069463;28;20481;-62
2021/04/28 00:55:55;;;;;;;10.93;4.80;;;7.20;70.40;;;;;;5077628;28;20395;-63
2021/04/28 00:58:23;;;;;;;11.00;4.38;;;7.20;70.80;;;;;;5073048;28;20119;-63
2021/04/28 01:00:50;;;;;;;9.35;4.93;;;7.10;71.40;;;;;;5068328;28;20033;-63
2021/04/28 01:03:19;;;;;;;7.00;4.30;;;7.00;71.40;;;;;;5077457;28;20040;-63
2021/04/28 01:05:45;;;;;;;6.55;4.18;;;7.00;72.30;;;;;;5078427;28;20029;-63
2021/04/28 01:08:14;;;;;;;8.45;4.68;;;6.90;72.00;;;;;;5084554;28;20019;-62
2021/04/28 01:10:39;;;;;;;11.02;4.40;;;6.90;72.30;;;;;;5074602;28;20032;-61
2021/04/28 01:13:05;;;;;;;9.68;5.30;;;6.90;72.10;;;;;;5073229;28;20082;-59
2021/04/28 01:15:33;;;;;;;8.43;4.43;;;6.80;74.00;;;;;;5069809;28;20035;-63
2021/04/28 01:18:00;;;;;;;8.35;4.32;;;6.80;74.70;;;;;;5073154;28;20074;-63
2021/04/28 01:20:28;;;;;;;6.75;3.97;;;6.70;74.80;;;;;;5083286;28;20059;-62
2021/04/28 01:22:54;;;;;;;9.38;4.88;;;6.60;75.60;;;;;;5082390;28;20529;-63
2021/04/28 01:25:22;;;;;;;8.15;4.47;;;6.60;76.10;;;;;;5066869;28;20115;-63
2021/04/28 01:27:59;;;;;;;8.20;4.20;;;6.60;76.10;;;;;;5079905;28;20025;-62
2021/04/28 01:30:29;;;;;;;7.28;3.78;;;6.70;76.10;;;;;;5069736;28;20044;-63
2021/04/28 01:32:56;;;;;;;9.93;4.15;;;6.80;75.20;;;;;;5071855;28;20090;-63
2021/04/28 01:35:24;;;;;;;9.43;4.45;;;6.80;75.20;;;;;;5082365;28;20039;-58
2021/04/28 01:37:49;;;;;;;25.80;5.20;;;6.80;76.10;;;;;;5069913;28;20051;-62
2021/04/28 01:40:18;;;;;;;12.95;4.28;;;6.80;75.60;;;;;;5070205;28;20115;-63
2021/04/28 01:42:46;;;;;;;10.38;3.78;;;6.90;75.90;;;;;;5069177;28;20025;-63
2021/04/28 01:45:13;;;;;;;8.70;4.47;;;6.90;75.60;;;;;;5079192;28;20028;-58
2021/04/28 01:47:40;;;;;;;12.32;4.50;;;6.90;75.20;;;;;;5072042;28;20104;-63
2021/04/28 01:50:08;;;;;;;10.77;4.28;;;7.00;75.00;;;;;;5080256;28;20036;-63
2021/04/28 01:52:34;;;;;;;7.60;4.70;;;7.00;75.20;;;;;;5084669;28;20084;-63
2021/04/28 01:55:00;;;;;;;7.13;4.30;;;7.10;74.90;;;;;;5074246;28;20561;-63
2021/04/28 01:57:26;;;;;;;10.30;5.18;;;7.00;75.00;;;;;;5079502;28;20037;-59
2021/04/28 01:59:52;;;;;;;7.68;4.40;;;7.10;75.00;;;;;;5082826;28;20040;-63
2021/04/28 02:02:18;;;;;;;7.45;4.30;;;7.00;75.90;;;;;;5078651;28;20481;-63
2021/04/28 02:04:44;;;;;;;12.05;4.22;;;7.00;75.70;;;;;;5075646;28;20032;-63
2021/04/28 02:07:10;;;;;;;8.75;4.78;;;6.90;75.70;;;;;;5069022;28;20028;-63
2021/04/28 02:09:36;;;;;;;7.10;4.15;;;6.90;76.30;;;;;;5069980;28;20093;-63
2021/04/28 02:12:02;;;;;;;6.35;3.83;;;6.90;76.40;;;;;;5074998;28;20042;-63
2021/04/28 02:14:29;;;;;;;11.52;4.70;;;6.90;77.00;;;;;;5070764;28;20430;-63
2021/04/28 02:16:55;;;;;;;12.88;3.83;;;6.90;76.80;;;;;;5081692;28;20028;-63
2021/04/28 02:19:22;;;;;;;18.35;5.85;;;6.90;76.60;;;;;;5082282;28;20086;-63
2021/04/28 02:21:51;;;;;;;11.73;4.32;;;6.90;76.40;;;;;;5075225;28;20737;-63
2021/04/28 02:24:17;;;;;;;8.00;4.68;;;6.90;76.30;;;;;;5077492;28;20028;-63
2021/04/28 02:26:43;;;;;;;7.93;4.07;;;6.90;76.10;;;;;;5070974;28;20097;-63
2021/04/28 02:29:10;;;;;;;9.25;4.25;;;6.90;76.90;;;;;;5073046;28;20031;-63
2021/04/28 02:31:36;;;;;;;10.30;4.13;;;6.90;77.50;;;;;;5070925;28;20043;-63
2021/04/28 02:34:04;;;;;;;13.07;4.63;;;6.80;77.20;;;;;;5071671;28;20182;-63
2021/04/28 02:36:33;;;;;;;7.47;4.25;;;6.80;77.40;;;;;;5058498;28;20120;-63
2021/04/28 02:39:09;;;;;;;10.60;4.55;;;6.80;77.50;;;;;;5070517;28;20103;-63
2021/04/28 02:41:39;;;;;;;7.38;4.53;;;6.80;77.70;;;;;;5078051;28;20024;-62
2021/04/28 02:44:05;;;;;;;10.68;4.03;;;6.80;77.90;;;;;;5084818;28;20047;-63
2021/04/28 02:46:33;;;;;;;8.73;5.22;;;6.70;77.80;;;;;;5067539;28;20567;-63
2021/04/28 02:49:01;;;;;;;10.18;4.55;;;6.70;78.40;;;;;;5078031;28;20032;-64
2021/04/28 02:51:29;;;;;;;9.95;4.18;;;6.70;78.20;;;;;;5076980;28;20397;-59
2021/04/28 02:53:55;;;;;;;11.90;4.82;;;6.70;78.50;;;;;;5065121;28;20032;-63
2021/04/28 02:56:21;;;;;;;11.65;4.53;;;6.70;78.90;;;;;;5079298;28;20036;-64
2021/04/28 02:58:47;;;;;;;14.82;6.05;;;6.70;78.90;;;;;;5073683;28;20796;-64
2021/04/28 03:01:12;;;;;;;8.85;4.10;;;6.70;78.90;;;;;;5069942;28;20036;-63
2021/04/28 03:03:40;;;;;;;10.18;4.65;;;6.70;79.10;;;;;;5066253;28;20029;-63
2021/04/28 03:06:08;;;;;;;8.35;4.25;;;6.70;78.70;;;;;;5071956;28;20470;-64
2021/04/28 03:08:37;;;;;;;7.78;4.32;;;6.70;78.90;;;;;;5070256;28;20056;-63
2021/04/28 03:11:04;;;;;;;6.45;4.30;;;6.70;78.70;;;;;;5069396;28;20048;-63
2021/04/28 03:13:29;;;;;;;9.05;4.70;;;6.70;78.80;;;;;;5076775;28;20455;-63
2021/04/28 03:15:55;;;;;;;7.57;3.80;;;6.70;78.90;;;;;;5068268;28;20032;-64
2021/04/28 03:18:21;;;;;;;6.05;3.90;;;6.70;78.90;;;;;;5074188;28;20024;-63
2021/04/28 03:20:48;;;;;;;13.75;4.50;;;6.60;79.20;;;;;;5070597;28;20120;-62
2021/04/28 03:23:14;;;;;;;13.20;4.55;;;6.60;79.40;;;;;;5073217;28;20029;-63
2021/04/28 03:25:41;;;;;;;11.02;3.88;;;6.60;79.80;;;;;;5064700;28;20032;-63
2021/04/28 03:28:07;;;;;;;15.50;4.57;;;6.50;80.10;;;;;;5068559;28;20044;-63
2021/04/28 03:30:32;;;;;;;8.90;4.80;;;6.50;80.20;;;;;;5075711;28;20034;-63
2021/04/28 03:32:58;;;;;;;15.40;4.38;;;6.50;80.80;;;;;;5079801;28;20032;-63
2021/04/28 03:35:24;;;;;;;6.32;3.78;;;6.40;81.00;;;;;;5070750;28;20491;-62
2021/04/28 03:37:49;;;;;;;9.63;4.50;;;6.40;81.00;;;;;;5066234;28;20043;-63
2021/04/28 03:40:15;;;;;;;14.93;4.57;;;6.40;81.30;;;;;;5063009;28;20059;-63
2021/04/28 03:42:41;;;;;;;7.80;4.13;;;6.40;81.60;;;;;;5065398;28;20125;-63
2021/04/28 03:45:07;;;;;;;11.07;5.13;;;6.30;82.00;;;;;;5081274;28;20032;-62
2021/04/28 03:47:32;;;;;;;8.43;4.68;;;6.30;82.40;;;;;;5075658;28;20036;-63
2021/04/28 03:49:58;;;;;;;8.82;4.30;;;6.30;83.00;;;;;;5079440;28;20020;-64
2021/04/28 03:52:24;;;;;;;7.38;3.85;;;6.20;83.50;;;;;;5070141;28;20113;-63
2021/04/28 03:54:50;;;;;;;8.73;4.57;;;6.10;84.40;;;;;;5062833;28;20047;-63
2021/04/28 03:57:16;;;;;;;10.13;4.40;;;6.00;84.80;;;;;;5081613;28;20036;-64
2021/04/28 03:59:41;;;;;;;10.55;5.18;;;6.00;85.20;;;;;;5077082;28;20036;-63
2021/04/28 04:02:07;;;;;;;9.23;4.75;;;5.90;85.70;;;;;;5074937;28;20044;-63
2021/04/28 04:04:34;;;;;;;7.00;4.53;;;5.90;86.00;;;;;;5078143;28;20029;-63
2021/04/28 04:07:00;;;;;;;9.50;4.32;;;6.00;86.30;;;;;;5074654;28;20405;-63
2021/04/28 04:09:26;;;;;;;6.43;4.15;;;5.90;87.40;;;;;;5064046;28;20500;-57
2021/04/28 04:11:52;;;;;;;12.18;4.80;;;6.00;86.40;;;;;;5065580;28;20104;-63
2021/04/28 04:14:18;;;;;;;8.20;4.18;;;6.00;86.50;;;;;;5077307;28;20116;-63
2021/04/28 04:16:43;;;;;;;12.23;4.65;;;6.00;86.60;;;;;;5074301;28;20102;-63
2021/04/28 04:19:09;;;;;;;10.00;3.67;;;6.00;87.00;;;;;;5072375;28;20053;-63
2021/04/28 04:21:35;;;;;;;6.65;4.10;;;5.90;87.70;;;;;;5060225;28;20025;-63
2021/04/28 04:24:00;;;;;;;10.63;4.55;;;5.90;88.00;;;;;;5062212;28;20035;-63
2021/04/28 04:26:26;;;;;;;8.18;4.32;;;5.90;87.80;;;;;;5078320;28;20040;-63
2021/04/28 04:28:52;;;;;;;8.57;4.00;;;5.90;88.60;;;;;;5072022;28;20021;-63
2021/04/28 04:31:17;;;;;;;7.20;4.07;;;5.90;89.00;;;;;;5081756;28;20031;-62
2021/04/28 04:33:43;;;;;;;13.45;4.35;;;5.90;88.40;;;;;;5078687;28;20389;-63
2021/04/28 04:36:08;;;;;;;6.57;4.10;;;5.90;88.50;;;;;;5066948;28;20016;-63
2021/04/28 04:38:34;;;;;;;9.60;4.53;;;6.00;88.30;;;;;;5061855;28;20033;-63
2021/04/28 04:40:59;;;;;;;8.77;4.35;;;6.00;88.10;;;;;;5065501;28;20406;-63
2021/04/28 04:43:25;;;;;;;15.98;4.38;;;6.10;88.40;;;;;;5077768;28;20032;-56
2021/04/28 04:45:51;;;;;;;7.50;3.90;;;6.10;87.80;;;;;;5077529;28;20021;-63
2021/04/28 04:48:16;;;;;;;6.38;4.18;;;6.10;87.70;;;;;;5080703;28;20536;-64
2021/04/28 04:50:42;;;;;;;7.35;4.03;;;6.20;88.00;;;;;;5075369;28;20110;-63
2021/04/28 04:53:09;;;;;;;9.35;3.90;;;6.20;88.10;;;;;;5081506;28;20047;-60
2021/04/28 04:55:35;;;;;;;13.85;4.82;;;6.20;88.10;;;;;;5077249;28;20116;-64
2021/04/28 04:58:00;;;;;;;7.35;4.20;;;6.30;87.90;;;;;;5068873;28;20020;-63
2021/04/28 05:00:26;;;;;;;9.45;5.03;;;6.30;87.80;;;;;;5080147;28;20052;-63
2021/04/28 05:02:52;;;;;;;9.07;4.50;;;6.50;87.10;;;;;;5081089;28;20401;-64
2021/04/28 05:05:18;;;;;;;6.72;4.28;;;7.30;85.20;;;;;;5074466;28;20028;-63
2021/04/28 05:07:44;;;;;;;7.82;4.22;;;8.50;80.10;;;;;;5075957;28;20837;-64
2021/04/28 05:10:12;;;;;;;8.05;4.35;;;9.90;73.20;;;;;;5072734;28;20027;-64
2021/04/28 05:12:37;;;;;;;9.43;3.88;;;11.20;67.30;;;;;;5079372;28;20039;-64
2021/04/28 05:15:05;;;;;;;8.93;4.47;;;12.20;63.30;;;;;;5081947;28;20377;-64
2021/04/28 05:17:31;;;;;;;9.68;3.97;;;13.10;58.90;;;;;;5076547;28;20055;-64
2021/04/28 05:19:56;;;;;;;13.52;5.03;;;13.80;57.00;;;;;;5082321;28;20060;-65
2021/04/28 05:22:23;;;;;;;6.72;4.13;;;14.40;54.50;;;;;;5085226;28;20034;-65
2021/04/28 05:24:49;;;;;;;5.65;4.18;;;14.70;52.50;;;;;;5083289;28;20063;-64
2021/04/28 05:27:15;;;;;;;11.40;5.10;;;15.30;51.40;;;;;;5069792;28;20397;-65
2021/04/28 05:29:41;;;;;;;13.27;4.78;;;15.70;50.50;;;;;;5072772;28;20108;-63
2021/04/28 05:32:06;;;;;;;7.28;4.22;;;16.00;48.90;;;;;;5070883;28;20036;-65
2021/04/28 05:34:32;;;;;;;16.67;4.32;;;16.40;48.60;;;;;;5070325;28;20056;-65
2021/04/28 05:36:57;;;;;;;9.32;4.47;;;16.80;46.60;;;;;;5080225;28;20025;-65
2021/04/28 05:39:23;;;;;;;7.35;4.40;;;17.20;45.80;;;;;;5085133;28;20032;-63
2021/04/28 05:41:49;;;;;;;8.65;4.80;;;17.50;45.60;;;;;;5066116;28;20497;-62
2021/04/28 05:44:14;;;;;;;8.35;5.05;;;17.50;45.30;;;;;;5079603;28;20028;-63
2021/04/28 05:46:40;;;;;;;9.52;4.90;;;18.00;44.40;;;;;;5073927;28;20035;-63
2021/04/28 05:49:06;;;;;;;6.70;4.50;;;18.50;43.20;;;;;;5079951;28;20029;-63
2021/04/28 05:51:32;;;;;;;16.95;5.45;;;18.70;42.80;;;;;;5061967;28;20135;-63
2021/04/28 05:53:58;;;;;;;7.60;5.07;;;19.00;41.90;;;;;;5058641;28;20036;-61
2021/04/28 05:56:23;;;;;;;8.05;4.78;;;19.20;41.30;;;;;;5069039;28;20040;-63
2021/04/28 05:58:49;;;;;;;6.88;4.25;;;19.50;40.90;;;;;;5071652;28;20172;-62
2021/04/28 06:01:15;;;;;;;8.73;4.60;;;19.90;40.10;;;;;;5066225;28;20024;-63
2021/04/28 06:03:41;;;;;;;8.20;4.65;;;19.60;40.60;;;;;;5069175;28;20028;-63
2021/04/28 06:06:08;;;;;;;11.80;5.25;;;19.90;40.40;;;;;;5066353;28;20024;-62
2021/04/28 06:08:34;;;;;;;8.15;4.65;;;20.40;39.40;;;;;;5072512;28;20044;-63
2021/04/28 06:10:59;;;;;;;12.60;5.50;;;20.50;39.20;;;;;;5060742;28;20071;-63
2021/04/28 06:13:25;;;;;;;8.32;4.30;;;21.00;38.90;;;;;;5064345;28;20115;-63
2021/04/28 06:15:50;;;;;;;6.55;4.45;;;20.20;40.10;;;;;;5063076;28;20129;-63
2021/04/28 06:18:16;;;;;;;9.13;4.90;;;20.40;39.50;;;;;;5076560;28;20505;-62
2021/04/28 06:20:41;;;;;;;11.73;4.43;;;21.00;38.20;;;;;;5072933;28;20020;-62
2021/04/28 06:23:07;;;;;;;15.13;4.80;;;21.30;38.10;;;;;;5068940;28;20067;-63
2021/04/28 06:25:33;;;;;;;11.60;4.85;;;22.00;37.80;;;;;;5076996;28;20509;-63
2021/04/28 06:27:58;;;;;;;6.97;4.63;;;21.90;37.00;;;;;;5080511;28;20012;-63
2021/04/28 06:30:24;;;;;;;18.30;4.32;;;22.20;37.40;;;;;;5082801;28;20051;-62
2021/04/28 06:32:50;;;;;;;10.80;4.00;;;22.40;36.80;;;;;;5066199;28;20075;-64
2021/04/28 06:35:16;;;;;;;8.93;4.53;;;22.10;36.40;;;;;;5077892;28;20024;-62
2021/04/28 06:37:42;;;;;;;11.48;4.97;;;22.90;36.00;;;;;;5074519;28;20455;-64
2021/04/28 06:40:10;;;;;;;11.95;5.22;;;22.00;37.00;;;;;;5077051;28;20035;-64
2021/04/28 06:42:35;;;;;;;10.30;5.15;;;22.00;37.20;;;;;;5075997;28;20024;-64
2021/04/28 06:45:02;;;;;;;9.10;4.53;;;22.10;37.00;;;;;;5076883;28;20036;-61
2021/04/28 06:47:27;;;;;;;7.13;4.35;;;22.10;36.40;;;;;;5074944;28;20490;-59
2021/04/28 06:49:55;;;;;;;11.55;4.75;;;23.20;35.80;;;;;;5078406;28;20025;-64
2021/04/28 06:52:21;;;;;;;9.55;4.72;;;23.80;34.90;;;;;;5074596;28;20111;-64
2021/04/28 06:54:47;;;;;;;10.20;5.32;;;23.10;34.10;;;;;;5066207;28;20028;-63
2021/04/28 06:57:12;;;;;;;12.65;4.50;;;22.90;36.30;;;;;;5079058;28;20056;-64
2021/04/28 06:59:38;;;;;;;8.52;5.05;;;23.30;35.00;;;;;;5059728;28;20064;-63
2021/04/28 07:02:04;;;;;;;19.80;5.32;;;23.30;34.90;;;;;;5039622;28;20105;-64
2021/04/28 07:04:29;;;;;;;9.32;4.78;;;23.60;36.00;;;;;;5058083;28;20024;-64
2021/04/28 07:06:55;;;;;;;12.27;4.32;;;23.50;34.00;;;;;;5063289;28;20021;-64
2021/04/28 07:09:21;;;;;;;9.02;4.45;;;25.00;33.70;;;;;;5065429;28;20024;-64
2021/04/28 07:11:47;;;;;;;7.28;4.82;;;24.80;32.60;;;;;;5059947;28;20132;-64
2021/04/28 07:14:12;;;;;;;11.30;4.63;;;24.80;31.80;;;;;;5062668;28;20031;-64
2021/04/28 07:16:38;;;;;;;8.50;5.20;;;24.70;31.80;;;;;;5071306;28;20401;-64
2021/04/28 07:19:04;;;;;;;5.53;4.32;;;25.30;32.80;;;;;;5078855;28;20028;-63
2021/04/28 07:21:30;;;;;;;8.32;4.47;;;24.90;32.20;;;;;;5065694;28;20036;-62
2021/04/28 07:23:56;;;;;;;8.82;4.47;;;25.00;31.80;;;;;;5064992;28;20029;-64
2021/04/28 07:26:22;;;;;;;7.72;4.68;;;24.80;33.20;;;;;;5078487;28;20128;-64
2021/04/28 07:28:51;;;;;;;9.32;4.03;;;24.10;33.50;;;;;;5072411;28;20485;-64
2021/04/28 07:31:17;;;;;;;9.80;4.78;;;24.10;34.30;;;;;;5079111;28;20024;-64
2021/04/28 07:33:43;;;;;;;7.28;4.78;;;26.10;32.60;;;;;;5071640;28;20029;-64
2021/04/28 07:36:09;;;;;;;8.60;4.20;;;26.20;31.80;;;;;;5064754;28;20024;-64
2021/04/28 07:38:35;;;;;;;9.40;4.53;;;26.70;32.40;;;;;;5073924;28;20025;-64
2021/04/28 07:41:01;;;;;;;8.90;4.63;;;26.20;31.70;;;;;;5073245;28;20032;-64
2021/04/28 07:43:27;;;;;;;6.90;4.18;;;26.50;31.70;;;;;;5071627;28;20111;-60
2021/04/28 07:45:53;;;;;;;15.32;4.45;;;26.70;31.40;;;;;;5081347;28;20081;-64
2021/04/28 07:48:18;;;;;;;9.70;4.50;;;26.20;32.20;;;;;;5075784;28;20034;-64
2021/04/28 07:50:45;;;;;;;9.13;4.40;;;26.00;31.60;;;;;;5075538;28;20024;-64
2021/04/28 07:53:11;;;;;;;8.73;4.57;;;25.70;31.60;;;;;;5077612;28;20094;-64
2021/04/28 07:55:37;;;;;;;12.95;4.60;;;26.40;30.90;;;;;;5064627;28;20025;-64
2021/04/28 07:58:04;;;;;;;9.40;4.18;;;27.20;30.40;;;;;;5066794;28;20090;-64
2021/04/28 08:00:30;;;;;;;7.30;4.68;;;26.50;30.70;;;;;;5059108;28;20083;-64
2021/04/28 08:02:56;;;;;;;7.63;4.47;;;27.00;30.30;;;;;;5064263;28;20021;-64
2021/04/28 08:05:22;;;;;;;7.22;4.72;;;26.60;31.40;;;;;;5065911;28;20081;-64
2021/04/28 08:07:48;;;;;;;5.30;4.47;;;25.70;31.30;;;;;;5070836;28;20393;-64
2021/04/28 08:10:14;;;;;;;10.65;4.78;;;25.60;33.10;;;;;;5072422;28;20044;-64
2021/04/28 08:12:40;;;;;;;9.55;4.82;;;26.30;31.10;;;;;;5065650;28;20033;-63
2021/04/28 08:15:07;;;;;;;8.05;4.53;;;26.70;31.50;;;;;;5059823;28;20070;-64
2021/04/28 08:17:33;;;;;;;12.23;5.13;;;26.70;31.00;;;;;;5056704;28;20103;-64
2021/04/28 08:19:59;;;;;;;11.13;5.13;;;26.80;30.10;;;;;;5062099;28;20518;-61
2021/04/28 08:22:25;;;;;;;8.85;5.55;;;26.50;30.50;;;;;;5060897;28;20059;-64
2021/04/28 08:24:52;;;;;;;10.70;5.97;;;26.60;31.30;;;;;;5062413;28;20541;-64
2021/04/28 08:27:18;;;;;;;11.73;5.75;;;26.50;29.80;;;;;;5071745;28;20440;-63
2021/04/28 08:29:43;;;;;;;7.80;5.97;;;26.70;30.70;;;;;;5071274;28;20052;-64
2021/04/28 08:32:09;;;;;;;6.60;5.10;;;26.10;30.70;;;;;;5061158;28;20611;-63
2021/04/28 08:34:35;;;;;;;8.68;5.43;;;26.10;31.90;;;;;;5060700;28;20028;-64
2021/04/28 08:37:00;;;;;;;13.60;5.28;;;27.10;30.60;;;;;;5062057;28;20084;-63
2021/04/28 08:39:26;;;;;;;9.77;6.22;;;28.00;30.00;;;;;;5060092;28;20033;-64
2021/04/28 08:41:51;;;;;;;11.82;4.90;;;27.60;29.70;;;;;;5060022;28;20033;-63
2021/04/28 08:44:19;;;;;;;9.50;4.75;;;27.00;29.90;;;;;;5077134;28;20425;-64
2021/04/28 08:46:45;;;;;;;11.45;5.05;;;27.30;30.60;;;;;;5069763;28;20104;-63
2021/04/28 08:49:10;;;;;;;8.57;5.07;;;26.70;31.10;;;;;;5070497;28;20173;-64
2021/04/28 08:51:37;;;;;;;11.50;5.68;;;26.00;30.60;;;;;;5075410;28;20494;-63
2021/04/28 08:54:06;;;;;;;10.63;4.63;;;26.40;30.90;;;;;;5069151;28;20397;-63
2021/04/28 08:56:32;;;;;;;13.70;5.10;;;27.00;31.60;;;;;;5073642;28;20023;-64
2021/04/28 08:59:04;;;;;;;9.15;5.40;;;26.80;30.50;;;;;;5080317;28;20064;-64
2021/04/28 09:01:30;;;;;;;7.93;4.80;;;27.50;30.60;;;;;;5063360;28;20048;-62
2021/04/28 09:03:58;;;;;;;11.40;5.20;;;26.90;31.00;;;;;;5073943;28;20025;-63
2021/04/28 09:06:34;;;;;;;8.32;5.95;;;26.40;30.70;;;;;;5081923;28;20028;-63
2021/04/28 09:09:08;;;;;;;10.52;4.90;;;25.80;31.60;;;;;;5076061;28;20201;-64
2021/04/28 09:11:41;;;;;;;8.65;5.60;;;26.50;30.70;;;;;;5065376;28;20397;-62
2021/04/28 09:14:14;;;;;;;5.72;5.07;;;26.70;30.80;;;;;;5066076;28;20052;-64
2021/04/28 09:16:45;;;;;;;7.40;5.60;;;25.90;31.40;;;;;;5063032;28;20459;-64
2021/04/28 09:19:30;;;;;;;10.00;5.45;;;25.80;31.20;;;;;;5068457;28;20461;-64
2021/04/28 09:22:00;;;;;;;7.45;5.15;;;27.10;30.50;;;;;;5064871;28;20025;-63
2021/04/28 09:24:35;;;;;;;10.73;5.85;;;27.40;30.00;;;;;;5073686;28;20390;-64
2021/04/28 09:27:01;;;;;;;9.52;4.85;;;27.00;30.20;;;;;;5063477;28;20013;-64
2021/04/28 09:29:29;;;;;;;7.63;5.30;;;27.00;29.20;;;;;;5074059;28;20027;-62
2021/04/28 09:31:59;;;;;;;14.75;5.70;;;27.10;28.20;;;;;;5076550;28;20401;-63
2021/04/28 09:34:31;;;;;;;8.45;5.47;;;26.80;26.20;;;;;;5074422;28;20028;-63
2021/04/28 09:37:14;;;;;;;12.55;5.38;;;27.30;26.10;;;;;;5066840;28;20031;-64
2021/04/28 09:39:50;;;;;;;8.27;5.68;;;26.70;26.60;;;;;;5069818;28;20506;-64
2021/04/28 09:42:18;;;;;;;9.15;5.80;;;26.70;26.40;;;;;;5077224;28;20077;-62
2021/04/28 09:44:47;;;;;;;9.00;4.95;;;26.00;26.00;;;;;;5070709;28;20090;-64
2021/04/28 09:47:19;;;;;;;10.00;5.13;;;26.50;27.10;;;;;;5067683;28;20060;-62
2021/04/28 09:49:50;;;;;;;7.78;4.70;;;26.40;27.60;;;;;;5070832;28;20021;-64
2021/04/28 09:52:18;;;;;;;12.07;5.25;;;26.60;27.40;;;;;;5070614;28;20036;-63
2021/04/28 09:54:45;;;;;;;11.52;5.80;;;26.30;27.30;;;;;;5068161;28;20028;-63
2021/04/28 09:57:14;;;;;;;8.63;5.50;;;25.90;28.60;;;;;;5067626;28;20029;-64
2021/04/28 09:59:51;;;;;;;8.88;5.90;;;25.80;27.90;;;;;;5062173;28;20067;-64
2021/04/28 10:02:28;;;;;;;13.68;6.10;;;25.10;28.70;;;;;;5047708;28;20040;-64
2021/04/28 10:05:14;;;;;;;11.60;7.35;;;24.80;28.90;;;;;;5066806;28;20140;-63
2021/04/28 10:07:39;;;;;;;20.83;10.13;;;24.80;30.30;;;;;;5058534;28;20135;-64
2021/04/28 10:10:05;;;;;;;10.95;7.85;;;24.50;29.30;;;;;;5060147;28;20560;-63
2021/04/28 10:12:31;;;;;;;21.70;9.95;;;23.80;29.50;;;;;;5062053;28;20053;-66
2021/04/28 10:14:56;;;;;;;25.83;11.50;;;23.80;31.70;;;;;;5065916;28;20036;-64
2021/04/28 10:17:22;;;;;;;11.70;7.18;;;24.10;31.50;;;;;;5056126;28;20129;-63
2021/04/28 10:19:52;;;;;;;13.88;7.38;;;24.20;32.20;;;;;;5059380;28;20036;-63
2021/04/28 10:22:19;;;;;;;11.15;7.20;;;24.20;31.40;;;;;;5065569;28;20032;-63
2021/04/28 10:24:53;;;;;;;12.20;7.15;;;23.90;30.10;;;;;;5067532;28;20478;-63
2021/04/28 10:27:20;;;;;;;19.00;7.80;;;23.60;30.50;;;;;;5077275;28;20119;-61
2021/04/28 10:29:47;;;;;;;10.07;7.43;;;23.00;29.70;;;;;;5071262;28;20024;-64
2021/04/28 10:32:15;;;;;;;9.88;7.40;;;23.00;30.60;;;;;;5066514;28;20104;-64
2021/04/28 10:35:00;;;;;;;11.10;7.07;;;22.80;31.10;;;;;;5062427;28;20051;-64
2021/04/28 10:37:29;;;;;;;10.27;7.00;;;22.90;31.50;;;;;;5067222;28;20033;-65
2021/04/28 10:39:56;;;;;;;14.27;7.43;;;23.10;31.10;;;;;;5073827;28;20060;-64
2021/04/28 10:42:29;;;;;;;15.40;8.10;;;23.20;31.20;;;;;;5056272;28;20029;-64
2021/04/28 10:44:54;;;;;;;11.55;7.13;;;23.10;29.20;;;;;;5060854;28;20024;-64
2021/04/28 10:47:29;;;;;;;13.98;7.22;;;22.80;30.00;;;;;;5056231;28;20123;-63
2021/04/28 10:50:06;;;;;;;12.48;7.10;;;22.80;30.60;;;;;;5070711;28;20020;-64
2021/04/28 10:52:45;;;;;;;12.88;7.95;;;22.70;29.80;;;;;;5069622;28;20059;-64
2021/04/28 10:55:47;;;;;;;10.27;7.57;;;22.30;31.20;;;;;;5068444;28;20032;-62
2021/04/28 10:58:28;;;;;;;11.15;6.88;;;22.30;30.50;;;;;;5072863;28;20055;-64
2021/04/28 11:01:00;;;;;;;9.50;7.20;;;22.20;32.10;;;;;;5070257;28;20135;-64
2021/04/28 11:03:29;;;;;;;13.30;7.40;;;22.00;30.40;;;;;;5064892;28;20025;-64
2021/04/28 11:05:58;;;;;;;13.38;7.72;;;21.80;30.50;;;;;;5062766;28;20529;-63
2021/04/28 11:08:29;;;;;;;11.93;7.93;;;21.80;31.00;;;;;;5069687;28;20486;-63
2021/04/28 11:10:56;;;;;;;13.50;7.38;;;22.00;31.90;;;;;;5054479;28;20028;-63
2021/04/28 11:13:21;;;;;;;14.65;7.57;;;22.10;30.70;;;;;;5062000;28;20115;-64
2021/04/28 11:15:50;;;;;;;11.98;7.00;;;21.90;30.40;;;;;;5060896;28;20100;-62
2021/04/28 11:18:36;;;;;;;10.57;7.40;;;21.80;33.70;;;;;;5073224;28;20394;-62
2021/04/28 11:21:17;;;;;;;9.98;7.95;;;21.50;32.40;;;;;;5075553;28;20025;-63
2021/04/28 11:24:17;;;;;;;9.10;6.53;;;21.30;32.10;;;;;;5064580;28;20025;-61
2021/04/28 11:26:51;;;;;;;15.52;6.78;;;21.50;34.50;;;;;;5070223;28;20052;-62
2021/04/28 11:29:18;;;;;;;11.40;7.70;;;21.50;33.90;;;;;;5074517;28;20051;-63
2021/04/28 11:31:45;;;;;;;10.15;6.57;;;21.40;33.00;;;;;;5079458;28;20024;-63
2021/04/28 11:34:26;;;;;;;8.90;6.20;;;21.50;33.20;;;;;;5074481;28;20070;-63
2021/04/28 11:36:53;;;;;;;12.95;7.35;;;21.50;36.40;;;;;;5069230;28;20508;-64
2021/04/28 11:39:39;;;;;;;12.95;7.53;;;21.30;33.60;;;;;;5079456;28;20059;-63
2021/04/28 11:42:14;;;;;;;10.07;7.03;;;21.40;33.90;;;;;;5073514;28;20032;-63
2021/04/28 11:44:50;;;;;;;12.15;7.63;;;21.70;34.60;;;;;;5075015;28;20104;-64
2021/04/28 11:47:20;;;;;;;11.70;8.00;;;21.70;33.20;;;;;;5073425;28;20081;-64
2021/04/28 11:49:47;;;;;;;13.02;7.88;;;21.90;34.10;;;;;;5080116;28;20020;-64
2021/04/28 11:52:14;;;;;;;13.95;7.10;;;22.00;35.90;;;;;;5071501;28;20041;-63
2021/04/28 11:54:40;;;;;;;12.70;7.45;;;22.10;34.70;;;;;;5066328;28;20556;-62
2021/04/28 11:57:06;;;;;;;9.43;6.82;;;22.20;34.00;;;;;;5062430;28;20024;-63
2021/04/28 11:59:37;;;;;;;16.02;7.05;;;22.10;33.40;;;;;;5071867;28;20078;-60
2021/04/28 12:02:05;;;;;;;9.93;6.55;;;22.10;34.70;;;;;;5068572;28;20031;-64
2021/04/28 12:04:50;;;;;;;12.60;7.90;;;22.00;33.90;;;;;;5065733;28;20063;-64
2021/04/28 12:07:17;;;;;;;11.13;6.90;;;21.70;32.30;;;;;;5066505;28;20097;-64
2021/04/28 12:09:47;;;;;;;11.85;6.95;;;21.70;33.30;;;;;;5077254;28;20040;-63
2021/04/28 12:12:16;;;;;;;14.77;7.63;;;21.70;35.30;;;;;;5067151;28;20048;-64
2021/04/28 12:14:50;;;;;;;12.30;7.35;;;21.80;35.10;;;;;;5071504;28;20530;-63
2021/04/28 12:17:23;;;;;;;16.02;7.82;;;21.50;34.10;;;;;;5064340;28;20113;-62
2021/04/28 12:19:52;;;;;;;11.98;6.50;;;21.60;35.90;;;;;;5062261;28;20036;-62
2021/04/28 12:22:18;;;;;;;9.90;6.10;;;21.50;35.40;;;;;;5060245;28;20037;-61
2021/04/28 12:24:49;;;;;;;11.90;6.55;;;21.80;35.80;;;;;;5063161;28;20024;-63
2021/04/28 12:27:25;;;;;;;9.35;6.20;;;22.10;35.40;;;;;;5067176;28;20035;-63
2021/04/28 12:29:56;;;;;;;8.88;5.97;;;22.20;35.50;;;;;;5056002;28;20496;-62
2021/04/28 12:32:28;;;;;;;7.65;6.15;;;22.30;35.30;;;;;;5069578;28;20029;-62
2021/04/28 12:35:16;;;;;;;11.38;6.47;;;22.20;35.00;;;;;;5066297;28;20029;-62
2021/04/28 12:38:13;;;;;;;9.10;5.88;;;22.40;34.80;;;;;;5073819;28;20489;-62
2021/04/28 12:40:44;;;;;;;13.88;7.95;;;22.20;35.10;;;;;;5074260;28;20052;-62
2021/04/28 12:43:19;;;;;;;13.23;7.47;;;22.30;34.00;;;;;;5079308;28;20066;-62
2021/04/28 12:45:46;;;;;;;10.57;6.72;;;22.20;35.10;;;;;;5019570;28;20121;-62
2021/04/28 12:48:16;;;;;;;9.10;5.85;;;21.80;34.50;;;;;;5020433;28;20024;-62
2021/04/28 12:50:45;;;;;;;11.52;5.25;;;21.80;35.20;;;;;;5011572;28;20023;-62